This is the latest recevied weather packets stored in our database for station/object KB8DOA. If no packets are shown the sender has not sent any weather packets the latest 10 day(s).
| Time | Temp. | Humidity | Pressure | Rain* | Wind** | Luminosity | Snow |
|---|---|---|---|---|---|---|---|
| 1778263805 | 30° C | 56% | 1013.4 hPa | 0 mm | - | 0 W/m² | - |
| 1778263204 | 30° C | 55% | 1014.5 hPa | 0 mm | - | 0 W/m² | - |
| 1778260504 | 30° C | 56% | 1015.2 hPa | 0 mm | - | 1249 W/m² | - |
| 1778258404 | 30° C | 56% | 1015.1 hPa | 0 mm | - | 1178 W/m² | - |
| 1778253304 | 30.56° C | 55% | 1015.7 hPa | 0 mm | - | 865 W/m² | - |
| 1778248804 | 28.33° C | 64% | 1014.9 hPa | 0 mm | - | 505 W/m² | - |
| 1778247904 | 27.78° C | 66% | 1013.8 hPa | 0 mm | - | 432 W/m² | - |
| 1778242504 | 24.44° C | 81% | 1012.1 hPa | 0 mm | - | 60 W/m² | - |
| 1778242204 | 24.44° C | 82% | 1012.4 hPa | 0 mm | - | 44 W/m² | - |
| 1778238004 | 21.67° C | 91% | 1013.7 hPa | 0 mm | - | 28 W/m² | - |
| 1778236205 | 21.67° C | 90% | 1013.4 hPa | 0 mm | - | 1 W/m² | - |
| 1778234404 | 21.67° C | 89% | 1013.3 hPa | 0 mm | - | 0 W/m² | - |
| 1778233204 | 22.22° C | 89% | 1013.2 hPa | 0 mm | - | 0 W/m² | - |
| 1778228405 | 22.78° C | 86% | 1013.1 hPa | 0 mm | - | 0 W/m² | - |
| 1778226903 | 23.33° C | 86% | 1013.1 hPa | 0 mm | - | 0 W/m² | - |
| 1778225704 | 23.33° C | 86% | 1013.2 hPa | 0 mm | - | 0 W/m² | - |
| 1778225406 | 23.33° C | 86% | 1013.3 hPa | 0 mm | - | 0 W/m² | - |
| 1778220904 | 25° C | 83% | 1013.4 hPa | 0 mm | - | 0 W/m² | - |
| 1778220304 | 25° C | 82% | 1013.3 hPa | 0 mm | - | 0 W/m² | - |
| 1778214604 | 27.22° C | 84% | 1013.9 hPa | 0 mm | - | 0 W/m² | - |
| 1778211604 | 27.78° C | 77% | 1012.9 hPa | 0 mm | - | 0 W/m² | - |
| 1778210404 | 27.78° C | 73% | 1011.6 hPa | 0 mm | - | 0 W/m² | - |
| 1778209504 | 27.22° C | 72% | 1011.5 hPa | 0 mm | - | 0 W/m² | - |
| 1778209204 | 27.78° C | 72% | 1011.5 hPa | 0 mm | - | 0 W/m² | - |
| 1778208604 | 27.78° C | 72% | 1011.6 hPa | 0 mm | - | 0 W/m² | - |
* Rain latest hour (hover to see other rain measurements)
** Current wind speed in m/s (hover to see current wind gust speed)